sensor_id;sensor_type;location;lat;lon;timestamp;pressure;altitude;pressure_sealevel;temperature;humidity
56825;BME280;42705;50.326;18.772;2024-03-23T00:54:11;97838.36;;;10.59;59.59
56825;BME280;42705;50.326;18.772;2024-03-23T00:59:32;97835.53;;;10.61;59.85
56825;BME280;42705;50.326;18.772;2024-03-23T01:04:54;97824.86;;;10.63;59.95
56825;BME280;42705;50.326;18.772;2024-03-23T01:10:16;97823.88;;;10.66;60.18
56825;BME280;42705;50.326;18.772;2024-03-23T01:15:38;97822.95;;;10.68;60.21
56825;BME280;42705;50.326;18.772;2024-03-23T01:21:00;97810.98;;;10.67;59.71
56825;BME280;42705;50.326;18.772;2024-03-23T01:26:22;97797.64;;;10.68;59.31
56825;BME280;42705;50.326;18.772;2024-03-23T01:31:44;97784.41;;;10.67;59.01
56825;BME280;42705;50.326;18.772;2024-03-23T01:37:06;97774.37;;;10.70;59.13
56825;BME280;42705;50.326;18.772;2024-03-23T01:42:27;97763.11;;;10.73;58.93
56825;BME280;42705;50.326;18.772;2024-03-23T01:47:51;97759.39;;;10.75;59.57
56825;BME280;42705;50.326;18.772;2024-03-23T01:53:14;97759.55;;;10.77;59.42
56825;BME280;42705;50.326;18.772;2024-03-23T01:58:39;97759.41;;;10.75;59.44
56825;BME280;42705;50.326;18.772;2024-03-23T02:04:01;97762.95;;;10.71;59.44
56825;BME280;42705;50.326;18.772;2024-03-23T02:09:23;97764.90;;;10.62;58.95
56825;BME280;42705;50.326;18.772;2024-03-23T02:14:45;97760.30;;;10.50;59.22
56825;BME280;42705;50.326;18.772;2024-03-23T02:20:07;97756.44;;;10.41;59.00
56825;BME280;42705;50.326;18.772;2024-03-23T02:25:29;97762.02;;;10.33;59.09
56825;BME280;42705;50.326;18.772;2024-03-23T02:30:52;97752.08;;;10.22;58.96
56825;BME280;42705;50.326;18.772;2024-03-23T02:36:13;97743.09;;;10.12;59.36
56825;BME280;42705;50.326;18.772;2024-03-23T02:41:36;97735.23;;;10.06;59.69
56825;BME280;42705;50.326;18.772;2024-03-23T02:46:58;97731.52;;;9.99;59.68
56825;BME280;42705;50.326;18.772;2024-03-23T02:52:20;97723.15;;;9.92;59.92
56825;BME280;42705;50.326;18.772;2024-03-23T02:57:42;97713.23;;;9.85;59.93
56825;BME280;42705;50.326;18.772;2024-03-23T03:03:04;97711.17;;;9.79;60.08
56825;BME280;42705;50.326;18.772;2024-03-23T03:08:26;97709.41;;;9.78;60.08
56825;BME280;42705;50.326;18.772;2024-03-23T03:13:48;97710.95;;;9.78;60.10
56825;BME280;42705;50.326;18.772;2024-03-23T03:19:09;97694.44;;;9.77;60.07
56825;BME280;42705;50.326;18.772;2024-03-23T03:24:32;97680.27;;;9.78;60.19
56825;BME280;42705;50.326;18.772;2024-03-23T03:29:54;97671.62;;;9.80;60.89
56825;BME280;42705;50.326;18.772;2024-03-23T03:35:16;97674.73;;;9.86;61.02
56825;BME280;42705;50.326;18.772;2024-03-23T03:40:38;97668.59;;;9.92;61.13
56825;BME280;42705;50.326;18.772;2024-03-23T03:46:00;97668.45;;;9.95;60.79
56825;BME280;42705;50.326;18.772;2024-03-23T03:51:22;97675.98;;;9.96;60.86
56825;BME280;42705;50.326;18.772;2024-03-23T03:56:44;97670.30;;;9.97;61.17
56825;BME280;42705;50.326;18.772;2024-03-23T04:02:06;97651.64;;;9.95;60.93
56825;BME280;42705;50.326;18.772;2024-03-23T04:07:28;97626.30;;;9.98;61.41
56825;BME280;42705;50.326;18.772;2024-03-23T04:12:50;97621.80;;;10.01;61.47
56825;BME280;42705;50.326;18.772;2024-03-23T04:18:12;97630.23;;;10.04;61.52
56825;BME280;42705;50.326;18.772;2024-03-23T04:23:34;97627.02;;;10.04;62.11
56825;BME280;42705;50.326;18.772;2024-03-23T04:28:56;97607.07;;;10.02;62.33
56825;BME280;42705;50.326;18.772;2024-03-23T04:34:18;97597.55;;;10.01;62.30
56825;BME280;42705;50.326;18.772;2024-03-23T04:39:40;97599.20;;;10.02;62.23
56825;BME280;42705;50.326;18.772;2024-03-23T04:45:04;97601.66;;;10.03;62.09
56825;BME280;42705;50.326;18.772;2024-03-23T04:50:27;97610.31;;;10.04;61.97
56825;BME280;42705;50.326;18.772;2024-03-23T04:55:50;97610.23;;;10.03;61.91
56825;BME280;42705;50.326;18.772;2024-03-23T05:01:13;97605.11;;;9.98;61.94
56825;BME280;42705;50.326;18.772;2024-03-23T05:06:35;97590.64;;;9.93;61.76
56825;BME280;42705;50.326;18.772;2024-03-23T05:11:57;97585.45;;;9.84;61.91
56825;BME280;42705;50.326;18.772;2024-03-23T05:17:19;97570.54;;;9.77;62.26
56825;BME280;42705;50.326;18.772;2024-03-23T05:22:41;97562.41;;;9.74;62.43
56825;BME280;42705;50.326;18.772;2024-03-23T05:28:04;97557.67;;;9.71;61.81
56825;BME280;42705;50.326;18.772;2024-03-23T05:33:26;97563.34;;;9.66;62.12
56825;BME280;42705;50.326;18.772;2024-03-23T05:38:48;97566.17;;;9.59;62.36
56825;BME280;42705;50.326;18.772;2024-03-23T05:44:10;97563.45;;;9.51;62.43
56825;BME280;42705;50.326;18.772;2024-03-23T05:49:32;97553.85;;;9.46;62.51
56825;BME280;42705;50.326;18.772;2024-03-23T05:54:54;97524.16;;;9.49;62.84
56825;BME280;42705;50.326;18.772;2024-03-23T06:00:17;97521.35;;;9.56;63.29
56825;BME280;42705;50.326;18.772;2024-03-23T06:05:39;97513.65;;;9.61;63.47
56825;BME280;42705;50.326;18.772;2024-03-23T06:11:01;97514.83;;;9.67;63.71
56825;BME280;42705;50.326;18.772;2024-03-23T06:16:23;97510.17;;;9.70;63.63
56825;BME280;42705;50.326;18.772;2024-03-23T06:21:45;97506.86;;;9.70;63.40
56825;BME280;42705;50.326;18.772;2024-03-23T06:27:07;97509.83;;;9.75;63.38
56825;BME280;42705;50.326;18.772;2024-03-23T06:32:29;97517.37;;;9.83;63.27
56825;BME280;42705;50.326;18.772;2024-03-23T06:37:51;97511.69;;;9.93;63.19
56825;BME280;42705;50.326;18.772;2024-03-23T06:43:13;97513.95;;;10.03;63.09
56825;BME280;42705;50.326;18.772;2024-03-23T06:48:35;97508.06;;;10.09;63.27
56825;BME280;42705;50.326;18.772;2024-03-23T06:53:57;97500.48;;;10.13;63.37
56825;BME280;42705;50.326;18.772;2024-03-23T06:59:19;97494.31;;;10.24;63.39
56825;BME280;42705;50.326;18.772;2024-03-23T07:04:40;97495.80;;;10.33;63.00
56825;BME280;42705;50.326;18.772;2024-03-23T07:10:02;97493.66;;;10.40;62.93
56825;BME280;42705;50.326;18.772;2024-03-23T07:15:24;97485.51;;;10.47;62.74
56825;BME280;42705;50.326;18.772;2024-03-23T07:20:56;97483.31;;;10.60;62.80
56825;BME280;42705;50.326;18.772;2024-03-23T07:26:18;97477.55;;;10.73;62.54
56825;BME280;42705;50.326;18.772;2024-03-23T07:31:40;97476.52;;;10.89;62.32
56825;BME280;42705;50.326;18.772;2024-03-23T07:37:03;97472.78;;;11.06;61.94
56825;BME280;42705;50.326;18.772;2024-03-23T07:42:25;97460.14;;;11.18;61.76
56825;BME280;42705;50.326;18.772;2024-03-23T07:47:48;97455.06;;;11.24;61.54
56825;BME280;42705;50.326;18.772;2024-03-23T07:53:10;97448.42;;;11.40;61.38
56825;BME280;42705;50.326;18.772;2024-03-23T07:58:32;97444.52;;;11.65;60.75
56825;BME280;42705;50.326;18.772;2024-03-23T08:03:55;97429.67;;;11.95;59.75
56825;BME280;42705;50.326;18.772;2024-03-23T08:09:17;97424.44;;;12.24;58.97
56825;BME280;42705;50.326;18.772;2024-03-23T08:14:40;97410.95;;;12.52;58.39
56825;BME280;42705;50.326;18.772;2024-03-23T08:20:03;97390.42;;;12.83;58.05
56825;BME280;42705;50.326;18.772;2024-03-23T08:25:25;97381.02;;;13.09;56.77
56825;BME280;42705;50.326;18.772;2024-03-23T08:30:47;97374.77;;;13.33;55.35
56825;BME280;42705;50.326;18.772;2024-03-23T08:36:09;97369.69;;;13.53;54.24
56825;BME280;42705;50.326;18.772;2024-03-23T08:41:33;97350.39;;;13.74;53.04
56825;BME280;42705;50.326;18.772;2024-03-23T08:46:56;97340.55;;;13.90;51.26
56825;BME280;42705;50.326;18.772;2024-03-23T08:52:18;97330.59;;;14.01;50.05
56825;BME280;42705;50.326;18.772;2024-03-23T08:57:39;97325.88;;;14.15;50.21
56825;BME280;42705;50.326;18.772;2024-03-23T09:03:01;97316.20;;;14.24;49.63
56825;BME280;42705;50.326;18.772;2024-03-23T09:08:24;97307.02;;;14.30;49.42
56825;BME280;42705;50.326;18.772;2024-03-23T09:13:46;97285.30;;;14.37;49.23
56825;BME280;42705;50.326;18.772;2024-03-23T09:19:08;97263.33;;;14.47;49.64
56825;BME280;42705;50.326;18.772;2024-03-23T09:24:30;97247.20;;;14.58;49.55
56825;BME280;42705;50.326;18.772;2024-03-23T09:29:53;97236.53;;;14.64;49.05
56825;BME280;42705;50.326;18.772;2024-03-23T09:35:15;97235.19;;;14.75;48.22
56825;BME280;42705;50.326;18.772;2024-03-23T09:40:41;97225.55;;;14.78;47.01
56825;BME280;42705;50.326;18.772;2024-03-23T09:46:05;97207.80;;;14.86;47.12
56825;BME280;42705;50.326;18.772;2024-03-23T09:51:27;97208.11;;;15.07;46.73
56825;BME280;42705;50.326;18.772;2024-03-23T09:56:49;97194.91;;;15.15;45.93
56825;BME280;42705;50.326;18.772;2024-03-23T10:02:11;97187.77;;;15.26;45.51
56825;BME280;42705;50.326;18.772;2024-03-23T10:07:38;97181.23;;;15.41;44.93
56825;BME280;42705;50.326;18.772;2024-03-23T10:13:00;97173.34;;;15.65;44.73
56825;BME280;42705;50.326;18.772;2024-03-23T10:18:22;97158.55;;;15.85;44.31
56825;BME280;42705;50.326;18.772;2024-03-23T10:23:45;97134.86;;;16.11;44.59
56825;BME280;42705;50.326;18.772;2024-03-23T10:29:07;97136.89;;;16.44;44.25
56825;BME280;42705;50.326;18.772;2024-03-23T10:34:32;97129.31;;;16.67;44.09
56825;BME280;42705;50.326;18.772;2024-03-23T10:39:54;97110.89;;;16.64;43.98
56825;BME280;42705;50.326;18.772;2024-03-23T10:45:16;97095.96;;;16.65;44.10
56825;BME280;42705;50.326;18.772;2024-03-23T10:50:38;97077.30;;;16.77;43.63
56825;BME280;42705;50.326;18.772;2024-03-23T10:56:00;97066.74;;;16.95;42.46
56825;BME280;42705;50.326;18.772;2024-03-23T11:01:22;97047.14;;;17.05;42.33
56825;BME280;42705;50.326;18.772;2024-03-23T11:06:43;97035.40;;;17.17;41.64
56825;BME280;42705;50.326;18.772;2024-03-23T11:18:02;96988.24;;;17.35;39.91
56825;BME280;42705;50.326;18.772;2024-03-23T11:23:28;96983.02;;;17.56;39.47
56825;BME280;42705;50.326;18.772;2024-03-23T11:28:50;96974.17;;;17.71;38.21
56825;BME280;42705;50.326;18.772;2024-03-23T11:34:12;96938.98;;;17.82;38.25
56825;BME280;42705;50.326;18.772;2024-03-23T11:39:34;96926.77;;;17.98;38.06
56825;BME280;42705;50.326;18.772;2024-03-23T11:45:09;96923.89;;;18.16;37.59
56825;BME280;42705;50.326;18.772;2024-03-23T11:50:31;96908.13;;;18.37;36.81
56825;BME280;42705;50.326;18.772;2024-03-23T12:01:17;96881.02;;;18.69;35.84
56825;BME280;42705;50.326;18.772;2024-03-23T12:06:39;96850.14;;;18.83;35.65
56825;BME280;42705;50.326;18.772;2024-03-23T12:12:15;96847.13;;;19.00;35.14
56825;BME280;42705;50.326;18.772;2024-03-23T12:17:40;96843.56;;;19.18;34.83
56825;BME280;42705;50.326;18.772;2024-03-23T12:23:09;96833.88;;;19.33;33.97
56825;BME280;42705;50.326;18.772;2024-03-23T12:28:32;96811.84;;;19.48;33.95
56825;BME280;42705;50.326;18.772;2024-03-23T12:33:54;96797.40;;;19.84;33.69
56825;BME280;42705;50.326;18.772;2024-03-23T12:39:16;96765.18;;;20.28;33.71
56825;BME280;42705;50.326;18.772;2024-03-23T12:44:38;96764.48;;;22.19;32.41
56825;BME280;42705;50.326;18.772;2024-03-23T12:49:59;96748.17;;;25.35;29.45
56825;BME280;42705;50.326;18.772;2024-03-23T12:55:21;96742.18;;;25.49;28.11
56825;BME280;42705;50.326;18.772;2024-03-23T13:00:43;96733.20;;;26.63;27.05
56825;BME280;42705;50.326;18.772;2024-03-23T13:06:05;96724.30;;;27.45;25.73
56825;BME280;42705;50.326;18.772;2024-03-23T13:11:30;96725.75;;;27.70;24.96
56825;BME280;42705;50.326;18.772;2024-03-23T13:16:51;96736.96;;;27.79;23.97
56825;BME280;42705;50.326;18.772;2024-03-23T13:22:13;96765.05;;;24.05;26.00
56825;BME280;42705;50.326;18.772;2024-03-23T13:27:35;96817.98;;;21.79;28.52
56825;BME280;42705;50.326;18.772;2024-03-23T13:32:57;96983.11;;;19.96;33.81
56825;BME280;42705;50.326;18.772;2024-03-23T13:38:19;96999.94;;;17.14;41.57
56825;BME280;42705;50.326;18.772;2024-03-23T13:43:43;97042.52;;;14.62;47.47
56825;BME280;42705;50.326;18.772;2024-03-23T13:49:05;97066.54;;;12.95;52.24
56825;BME280;42705;50.326;18.772;2024-03-23T13:54:28;97065.71;;;11.99;54.14
56825;BME280;42705;50.326;18.772;2024-03-23T13:59:49;97063.71;;;11.45;55.76
56825;BME280;42705;50.326;18.772;2024-03-23T14:05:11;97060.36;;;11.12;57.21
56825;BME280;42705;50.326;18.772;2024-03-23T14:10:33;97060.69;;;10.92;57.86
56825;BME280;42705;50.326;18.772;2024-03-23T14:15:55;97065.77;;;10.79;58.53
56825;BME280;42705;50.326;18.772;2024-03-23T14:21:17;97060.48;;;10.69;59.17
56825;BME280;42705;50.326;18.772;2024-03-23T14:26:40;97051.82;;;10.62;59.93
56825;BME280;42705;50.326;18.772;2024-03-23T14:32:03;97031.86;;;10.59;60.33
56825;BME280;42705;50.326;18.772;2024-03-23T14:37:25;97017.63;;;10.60;60.55
56825;BME280;42705;50.326;18.772;2024-03-23T14:42:49;97022.18;;;10.58;60.87
56825;BME280;42705;50.326;18.772;2024-03-23T14:48:11;97002.45;;;10.62;60.80
56825;BME280;42705;50.326;18.772;2024-03-23T14:53:34;96988.48;;;10.67;61.09
56825;BME280;42705;50.326;18.772;2024-03-23T14:58:56;96968.14;;;10.70;61.23
56825;BME280;42705;50.326;18.772;2024-03-23T15:04:18;96961.06;;;10.74;61.60
56825;BME280;42705;50.326;18.772;2024-03-23T15:09:41;96991.33;;;10.76;61.46
56825;BME280;42705;50.326;18.772;2024-03-23T15:15:03;97022.34;;;10.71;61.82
56825;BME280;42705;50.326;18.772;2024-03-23T15:20:25;97044.34;;;10.66;62.40
56825;BME280;42705;50.326;18.772;2024-03-23T15:26:07;97050.27;;;10.64;62.82
56825;BME280;42705;50.326;18.772;2024-03-23T15:31:29;97043.15;;;10.62;63.68
56825;BME280;42705;50.326;18.772;2024-03-23T15:36:53;97041.30;;;10.57;64.02
56825;BME280;42705;50.326;18.772;2024-03-23T15:42:15;97029.59;;;10.53;64.52
56825;BME280;42705;50.326;18.772;2024-03-23T15:47:37;97032.20;;;10.53;64.99
56825;BME280;42705;50.326;18.772;2024-03-23T15:52:59;97045.48;;;10.54;65.23
56825;BME280;42705;50.326;18.772;2024-03-23T15:58:24;97055.94;;;10.54;65.31
56825;BME280;42705;50.326;18.772;2024-03-23T16:03:46;97087.34;;;10.55;65.95
56825;BME280;42705;50.326;18.772;2024-03-23T16:09:08;97147.82;;;10.56;65.81
56825;BME280;42705;50.326;18.772;2024-03-23T16:14:30;97196.63;;;10.32;64.64
56825;BME280;42705;50.326;18.772;2024-03-23T16:19:52;97209.40;;;9.82;63.31
56825;BME280;42705;50.326;18.772;2024-03-23T16:25:15;97251.77;;;9.34;62.73
56825;BME280;42705;50.326;18.772;2024-03-23T16:30:36;97250.38;;;8.84;61.66
56825;BME280;42705;50.326;18.772;2024-03-23T16:36:03;97255.36;;;8.38;61.92
56825;BME280;42705;50.326;18.772;2024-03-23T16:41:26;97303.70;;;8.07;62.37
56825;BME280;42705;50.326;18.772;2024-03-23T16:46:48;97320.02;;;7.76;63.10
56825;BME280;42705;50.326;18.772;2024-03-23T16:52:10;97348.20;;;7.51;63.74
56825;BME280;42705;50.326;18.772;2024-03-23T16:57:32;97354.73;;;7.35;63.82
56825;BME280;42705;50.326;18.772;2024-03-23T17:02:53;97369.09;;;7.17;64.07
56825;BME280;42705;50.326;18.772;2024-03-23T17:08:16;97364.84;;;7.01;63.94
56825;BME280;42705;50.326;18.772;2024-03-23T17:13:38;97379.74;;;6.90;63.91
56825;BME280;42705;50.326;18.772;2024-03-23T17:19:00;97388.71;;;6.81;64.16
56825;BME280;42705;50.326;18.772;2024-03-23T17:24:21;97408.11;;;6.72;64.08
56825;BME280;42705;50.326;18.772;2024-03-23T17:29:43;97412.14;;;6.66;64.29
56825;BME280;42705;50.326;18.772;2024-03-23T17:35:05;97423.89;;;6.57;64.27
56825;BME280;42705;50.326;18.772;2024-03-23T17:40:27;97441.69;;;6.44;64.15
56825;BME280;42705;50.326;18.772;2024-03-23T17:45:50;97458.84;;;6.33;64.07
56825;BME280;42705;50.326;18.772;2024-03-23T17:51:12;97486.93;;;6.23;64.06
56825;BME280;42705;50.326;18.772;2024-03-23T17:56:35;97480.79;;;6.12;64.16
56825;BME280;42705;50.326;18.772;2024-03-23T18:01:57;97506.33;;;5.99;64.16
56825;BME280;42705;50.326;18.772;2024-03-23T18:07:20;97520.39;;;5.89;64.09
56825;BME280;42705;50.326;18.772;2024-03-23T18:12:44;97533.61;;;5.79;64.04
56825;BME280;42705;50.326;18.772;2024-03-23T18:18:10;97529.59;;;5.68;63.96
56825;BME280;42705;50.326;18.772;2024-03-23T18:23:32;97536.63;;;5.60;64.21
56825;BME280;42705;50.326;18.772;2024-03-23T18:28:55;97555.83;;;5.55;64.18
56825;BME280;42705;50.326;18.772;2024-03-23T18:34:18;97542.05;;;5.54;64.47
56825;BME280;42705;50.326;18.772;2024-03-23T18:39:40;97540.33;;;5.56;64.52
56825;BME280;42705;50.326;18.772;2024-03-23T18:45:03;97548.75;;;5.56;64.43
56825;BME280;42705;50.326;18.772;2024-03-23T18:50:25;97539.94;;;5.52;64.37
56825;BME280;42705;50.326;18.772;2024-03-23T18:55:54;97539.46;;;5.47;64.04
56825;BME280;42705;50.326;18.772;2024-03-23T19:01:18;97552.52;;;5.42;63.63
56825;BME280;42705;50.326;18.772;2024-03-23T19:06:41;97542.43;;;5.37;63.43
56825;BME280;42705;50.326;18.772;2024-03-23T19:12:05;97547.85;;;5.32;63.19
56825;BME280;42705;50.326;18.772;2024-03-23T19:17:27;97540.77;;;5.25;62.90
56825;BME280;42705;50.326;18.772;2024-03-23T19:22:49;97537.16;;;5.23;62.67
56825;BME280;42705;50.326;18.772;2024-03-23T19:28:11;97522.73;;;5.24;62.41
56825;BME280;42705;50.326;18.772;2024-03-23T19:33:34;97518.73;;;5.24;62.45
56825;BME280;42705;50.326;18.772;2024-03-23T19:38:55;97515.08;;;5.22;62.13
56825;BME280;42705;50.326;18.772;2024-03-23T19:44:18;97528.45;;;5.19;61.89
56825;BME280;42705;50.326;18.772;2024-03-23T19:49:40;97552.12;;;5.14;61.82
56825;BME280;42705;50.326;18.772;2024-03-23T19:55:03;97557.55;;;5.09;61.52
56825;BME280;42705;50.326;18.772;2024-03-23T20:00:26;97564.13;;;5.02;61.34
56825;BME280;42705;50.326;18.772;2024-03-23T20:05:58;97558.00;;;4.97;61.16
56825;BME280;42705;50.326;18.772;2024-03-23T20:11:26;97546.60;;;4.90;60.92
56825;BME280;42705;50.326;18.772;2024-03-23T20:16:49;97529.80;;;4.84;61.03
56825;BME280;42705;50.326;18.772;2024-03-23T20:22:11;97544.09;;;4.83;61.02
56825;BME280;42705;50.326;18.772;2024-03-23T20:27:33;97563.98;;;4.81;60.72
56825;BME280;42705;50.326;18.772;2024-03-23T20:32:55;97555.83;;;4.78;60.64
56825;BME280;42705;50.326;18.772;2024-03-23T20:38:17;97562.66;;;4.78;60.49
56825;BME280;42705;50.326;18.772;2024-03-23T20:43:40;97561.17;;;4.74;60.17
56825;BME280;42705;50.326;18.772;2024-03-23T20:49:06;97565.95;;;4.71;60.26
56825;BME280;42705;50.326;18.772;2024-03-23T20:54:28;97558.17;;;4.67;60.13
56825;BME280;42705;50.326;18.772;2024-03-23T20:59:50;97554.65;;;4.63;60.10
56825;BME280;42705;50.326;18.772;2024-03-23T21:05:12;97556.00;;;4.61;60.07
56825;BME280;42705;50.326;18.772;2024-03-23T21:10:34;97550.08;;;4.60;60.08
56825;BME280;42705;50.326;18.772;2024-03-23T21:15:56;97563.54;;;4.58;60.15
56825;BME280;42705;50.326;18.772;2024-03-23T21:21:21;97563.55;;;4.56;60.04
56825;BME280;42705;50.326;18.772;2024-03-23T21:26:43;97555.77;;;4.54;60.17
56825;BME280;42705;50.326;18.772;2024-03-23T21:32:05;97548.60;;;4.52;60.33
56825;BME280;42705;50.326;18.772;2024-03-23T21:37:27;97551.56;;;4.54;60.08
56825;BME280;42705;50.326;18.772;2024-03-23T21:42:49;97536.31;;;4.53;60.28
56825;BME280;42705;50.326;18.772;2024-03-23T21:48:11;97532.46;;;4.53;60.37
56825;BME280;42705;50.326;18.772;2024-03-23T21:53:33;97517.48;;;4.50;60.32
56825;BME280;42705;50.326;18.772;2024-03-23T21:58:59;97510.79;;;4.49;60.46
56825;BME280;42705;50.326;18.772;2024-03-23T22:04:21;97524.25;;;4.50;60.40
56825;BME280;42705;50.326;18.772;2024-03-23T22:09:43;97509.29;;;4.46;60.68
56825;BME280;42705;50.326;18.772;2024-03-23T22:15:05;97503.22;;;4.48;60.70
56825;BME280;42705;50.326;18.772;2024-03-23T22:20:30;97492.99;;;4.52;60.73
56825;BME280;42705;50.326;18.772;2024-03-23T22:25:57;97483.06;;;4.52;60.93
56825;BME280;42705;50.326;18.772;2024-03-23T22:31:21;97484.35;;;4.56;60.90
56825;BME280;42705;50.326;18.772;2024-03-23T22:36:42;97494.86;;;4.54;61.02
56825;BME280;42705;50.326;18.772;2024-03-23T22:42:04;97499.78;;;4.49;60.95
56825;BME280;42705;50.326;18.772;2024-03-23T22:47:26;97509.62;;;4.42;61.16
56825;BME280;42705;50.326;18.772;2024-03-23T22:52:48;97521.19;;;4.34;61.02
56825;BME280;42705;50.326;18.772;2024-03-23T22:58:10;97533.06;;;4.24;61.11
56825;BME280;42705;50.326;18.772;2024-03-23T23:03:32;97519.09;;;4.10;61.47
56825;BME280;42705;50.326;18.772;2024-03-23T23:08:55;97512.32;;;4.02;61.79
56825;BME280;42705;50.326;18.772;2024-03-23T23:14:17;97504.60;;;3.99;61.87
56825;BME280;42705;50.326;18.772;2024-03-23T23:19:39;97495.09;;;3.99;62.11
56825;BME280;42705;50.326;18.772;2024-03-23T23:25:00;97506.25;;;4.00;62.03
56825;BME280;42705;50.326;18.772;2024-03-23T23:30:22;97513.25;;;3.94;62.11
56825;BME280;42705;50.326;18.772;2024-03-23T23:35:44;97516.75;;;3.89;62.41
56825;BME280;42705;50.326;18.772;2024-03-23T23:41:06;97520.25;;;3.84;62.79
56825;BME280;42705;50.326;18.772;2024-03-23T23:46:28;97511.57;;;3.81;63.12
56825;BME280;42705;50.326;18.772;2024-03-23T23:51:50;97507.25;;;3.76;62.98
56825;BME280;42705;50.326;18.772;2024-03-23T23:57:11;97500.48;;;3.67;63.41
